sensor_id;sensor_type;location;lat;lon;timestamp;P1;durP1;ratioP1;P2;durP2;ratioP2
9773;SDS011;4926;42.670;23.316;2022-10-31T00:01:09;3.45;;;2.88;;
9773;SDS011;4926;42.670;23.316;2022-10-31T00:03:36;6.88;;;3.50;;
9773;SDS011;4926;42.670;23.316;2022-10-31T00:06:06;3.70;;;2.95;;
9773;SDS011;4926;42.670;23.316;2022-10-31T00:08:34;6.55;;;3.20;;
9773;SDS011;4926;42.670;23.316;2022-10-31T00:11:01;5.45;;;3.40;;
9773;SDS011;4926;42.670;23.316;2022-10-31T00:13:28;3.97;;;2.75;;
9773;SDS011;4926;42.670;23.316;2022-10-31T00:15:55;9.43;;;3.20;;
9773;SDS011;4926;42.670;23.316;2022-10-31T00:18:21;5.93;;;3.58;;
9773;SDS011;4926;42.670;23.316;2022-10-31T00:20:48;6.35;;;3.25;;
9773;SDS011;4926;42.670;23.316;2022-10-31T00:23:15;4.32;;;2.97;;
9773;SDS011;4926;42.670;23.316;2022-10-31T00:25:43;6.20;;;3.40;;
9773;SDS011;4926;42.670;23.316;2022-10-31T00:28:12;5.07;;;3.40;;
9773;SDS011;4926;42.670;23.316;2022-10-31T00:30:39;4.45;;;3.17;;
9773;SDS011;4926;42.670;23.316;2022-10-31T00:33:06;4.50;;;3.15;;
9773;SDS011;4926;42.670;23.316;2022-10-31T00:35:32;7.47;;;3.45;;
9773;SDS011;4926;42.670;23.316;2022-10-31T00:37:59;4.85;;;3.58;;
9773;SDS011;4926;42.670;23.316;2022-10-31T00:40:27;3.88;;;3.15;;
9773;SDS011;4926;42.670;23.316;2022-10-31T00:42:56;7.65;;;3.35;;
9773;SDS011;4926;42.670;23.316;2022-10-31T00:45:24;5.47;;;3.25;;
9773;SDS011;4926;42.670;23.316;2022-10-31T00:47:51;4.88;;;3.35;;
9773;SDS011;4926;42.670;23.316;2022-10-31T00:50:17;5.78;;;3.40;;
9773;SDS011;4926;42.670;23.316;2022-10-31T00:52:47;5.53;;;3.25;;
9773;SDS011;4926;42.670;23.316;2022-10-31T00:55:14;6.30;;;3.13;;
9773;SDS011;4926;42.670;23.316;2022-10-31T00:57:45;3.47;;;3.03;;
9773;SDS011;4926;42.670;23.316;2022-10-31T01:00:14;5.18;;;2.90;;
9773;SDS011;4926;42.670;23.316;2022-10-31T01:02:41;6.65;;;3.00;;
9773;SDS011;4926;42.670;23.316;2022-10-31T01:05:08;6.53;;;3.40;;
9773;SDS011;4926;42.670;23.316;2022-10-31T01:07:35;4.65;;;3.40;;
9773;SDS011;4926;42.670;23.316;2022-10-31T01:10:02;4.30;;;3.00;;
9773;SDS011;4926;42.670;23.316;2022-10-31T01:12:30;6.00;;;3.28;;
9773;SDS011;4926;42.670;23.316;2022-10-31T01:15:02;6.20;;;3.33;;
9773;SDS011;4926;42.670;23.316;2022-10-31T01:17:33;6.85;;;3.65;;
9773;SDS011;4926;42.670;23.316;2022-10-31T01:20:03;3.97;;;3.20;;
9773;SDS011;4926;42.670;23.316;2022-10-31T01:22:34;6.75;;;3.42;;
9773;SDS011;4926;42.670;23.316;2022-10-31T01:25:00;5.20;;;3.33;;
9773;SDS011;4926;42.670;23.316;2022-10-31T01:27:27;4.32;;;3.30;;
9773;SDS011;4926;42.670;23.316;2022-10-31T01:29:54;3.95;;;3.00;;
9773;SDS011;4926;42.670;23.316;2022-10-31T01:32:22;5.68;;;3.08;;
9773;SDS011;4926;42.670;23.316;2022-10-31T01:34:54;5.68;;;3.25;;
9773;SDS011;4926;42.670;23.316;2022-10-31T01:37:21;4.53;;;3.22;;
9773;SDS011;4926;42.670;23.316;2022-10-31T01:39:50;6.65;;;3.65;;
9773;SDS011;4926;42.670;23.316;2022-10-31T01:42:20;5.53;;;3.58;;
9773;SDS011;4926;42.670;23.316;2022-10-31T01:44:58;6.55;;;4.20;;
9773;SDS011;4926;42.670;23.316;2022-10-31T01:47:30;6.38;;;3.50;;
9773;SDS011;4926;42.670;23.316;2022-10-31T01:50:03;4.90;;;3.70;;
9773;SDS011;4926;42.670;23.316;2022-10-31T01:52:36;6.80;;;4.10;;
9773;SDS011;4926;42.670;23.316;2022-10-31T01:55:07;5.38;;;4.03;;
9773;SDS011;4926;42.670;23.316;2022-10-31T01:57:37;5.07;;;3.95;;
9773;SDS011;4926;42.670;23.316;2022-10-31T02:00:08;7.88;;;3.90;;
9773;SDS011;4926;42.670;23.316;2022-10-31T02:02:36;6.85;;;4.20;;
9773;SDS011;4926;42.670;23.316;2022-10-31T02:05:08;5.50;;;4.05;;
9773;SDS011;4926;42.670;23.316;2022-10-31T02:07:39;7.07;;;4.15;;
9773;SDS011;4926;42.670;23.316;2022-10-31T02:10:13;5.40;;;3.83;;
9773;SDS011;4926;42.670;23.316;2022-10-31T02:12:43;5.38;;;4.50;;
9773;SDS011;4926;42.670;23.316;2022-10-31T02:15:12;8.43;;;3.97;;
9773;SDS011;4926;42.670;23.316;2022-10-31T02:17:39;5.32;;;4.22;;
9773;SDS011;4926;42.670;23.316;2022-10-31T02:20:11;7.15;;;4.88;;
9773;SDS011;4926;42.670;23.316;2022-10-31T02:25:51;8.10;;;4.65;;
9773;SDS011;4926;42.670;23.316;2022-10-31T02:28:46;7.82;;;4.72;;
9773;SDS011;4926;42.670;23.316;2022-10-31T02:31:29;5.68;;;4.43;;
9773;SDS011;4926;42.670;23.316;2022-10-31T02:34:08;5.78;;;4.03;;
9773;SDS011;4926;42.670;23.316;2022-10-31T02:36:45;8.18;;;5.03;;
9773;SDS011;4926;42.670;23.316;2022-10-31T02:39:22;7.05;;;4.72;;
9773;SDS011;4926;42.670;23.316;2022-10-31T02:41:52;6.25;;;5.13;;
9773;SDS011;4926;42.670;23.316;2022-10-31T02:44:30;6.18;;;4.63;;
9773;SDS011;4926;42.670;23.316;2022-10-31T02:47:05;6.88;;;4.78;;
9773;SDS011;4926;42.670;23.316;2022-10-31T02:49:35;8.20;;;4.82;;
9773;SDS011;4926;42.670;23.316;2022-10-31T02:52:16;9.18;;;5.15;;
9773;SDS011;4926;42.670;23.316;2022-10-31T02:54:46;6.18;;;5.05;;
9773;SDS011;4926;42.670;23.316;2022-10-31T02:57:17;7.97;;;5.00;;
9773;SDS011;4926;42.670;23.316;2022-10-31T02:59:49;6.00;;;5.07;;
9773;SDS011;4926;42.670;23.316;2022-10-31T03:02:23;6.43;;;4.95;;
9773;SDS011;4926;42.670;23.316;2022-10-31T03:05:23;9.43;;;5.43;;
9773;SDS011;4926;42.670;23.316;2022-10-31T03:08:06;9.45;;;5.70;;
9773;SDS011;4926;42.670;23.316;2022-10-31T03:10:40;7.20;;;4.88;;
9773;SDS011;4926;42.670;23.316;2022-10-31T03:13:13;6.90;;;4.95;;
9773;SDS011;4926;42.670;23.316;2022-10-31T03:15:48;8.63;;;5.78;;
9773;SDS011;4926;42.670;23.316;2022-10-31T03:18:23;7.13;;;5.38;;
9773;SDS011;4926;42.670;23.316;2022-10-31T03:20:55;8.95;;;5.45;;
9773;SDS011;4926;42.670;23.316;2022-10-31T03:23:27;8.60;;;5.78;;
9773;SDS011;4926;42.670;23.316;2022-10-31T03:25:56;10.18;;;6.00;;
9773;SDS011;4926;42.670;23.316;2022-10-31T03:28:28;8.80;;;6.03;;
9773;SDS011;4926;42.670;23.316;2022-10-31T03:31:00;9.93;;;6.22;;
9773;SDS011;4926;42.670;23.316;2022-10-31T03:33:33;8.30;;;6.00;;
9773;SDS011;4926;42.670;23.316;2022-10-31T03:36:04;7.78;;;6.15;;
9773;SDS011;4926;42.670;23.316;2022-10-31T03:38:36;8.93;;;6.10;;
9773;SDS011;4926;42.670;23.316;2022-10-31T03:41:05;8.88;;;5.75;;
9773;SDS011;4926;42.670;23.316;2022-10-31T03:43:39;7.60;;;5.47;;
9773;SDS011;4926;42.670;23.316;2022-10-31T03:46:13;10.15;;;6.32;;
9773;SDS011;4926;42.670;23.316;2022-10-31T03:48:45;9.20;;;6.28;;
9773;SDS011;4926;42.670;23.316;2022-10-31T03:51:14;10.35;;;6.53;;
9773;SDS011;4926;42.670;23.316;2022-10-31T03:53:48;8.55;;;6.85;;
9773;SDS011;4926;42.670;23.316;2022-10-31T03:56:22;9.07;;;7.00;;
9773;SDS011;4926;42.670;23.316;2022-10-31T03:58:57;9.75;;;7.40;;
9773;SDS011;4926;42.670;23.316;2022-10-31T04:01:37;10.10;;;7.60;;
9773;SDS011;4926;42.670;23.316;2022-10-31T04:04:08;10.02;;;7.18;;
9773;SDS011;4926;42.670;23.316;2022-10-31T04:06:38;12.45;;;7.45;;
9773;SDS011;4926;42.670;23.316;2022-10-31T04:09:10;11.20;;;7.60;;
9773;SDS011;4926;42.670;23.316;2022-10-31T04:11:44;11.77;;;7.03;;
9773;SDS011;4926;42.670;23.316;2022-10-31T04:14:14;12.10;;;7.53;;
9773;SDS011;4926;42.670;23.316;2022-10-31T04:16:44;11.27;;;8.10;;
9773;SDS011;4926;42.670;23.316;2022-10-31T04:19:13;12.35;;;7.45;;
9773;SDS011;4926;42.670;23.316;2022-10-31T04:21:40;10.80;;;7.57;;
9773;SDS011;4926;42.670;23.316;2022-10-31T04:24:09;9.98;;;7.13;;
9773;SDS011;4926;42.670;23.316;2022-10-31T04:26:36;9.35;;;7.57;;
9773;SDS011;4926;42.670;23.316;2022-10-31T04:29:03;11.63;;;7.25;;
9773;SDS011;4926;42.670;23.316;2022-10-31T04:31:29;10.13;;;7.82;;
9773;SDS011;4926;42.670;23.316;2022-10-31T04:33:56;14.13;;;8.20;;
9773;SDS011;4926;42.670;23.316;2022-10-31T04:36:27;12.38;;;7.07;;
9773;SDS011;4926;42.670;23.316;2022-10-31T04:38:54;10.85;;;6.93;;
9773;SDS011;4926;42.670;23.316;2022-10-31T04:41:23;9.45;;;7.07;;
9773;SDS011;4926;42.670;23.316;2022-10-31T04:43:50;10.75;;;7.65;;
9773;SDS011;4926;42.670;23.316;2022-10-31T04:46:17;12.63;;;7.03;;
9773;SDS011;4926;42.670;23.316;2022-10-31T04:48:43;9.38;;;7.38;;
9773;SDS011;4926;42.670;23.316;2022-10-31T04:51:12;10.90;;;7.32;;
9773;SDS011;4926;42.670;23.316;2022-10-31T04:53:40;10.98;;;6.45;;
9773;SDS011;4926;42.670;23.316;2022-10-31T04:56:08;13.73;;;6.97;;
9773;SDS011;4926;42.670;23.316;2022-10-31T04:58:42;10.70;;;6.60;;
9773;SDS011;4926;42.670;23.316;2022-10-31T05:01:09;11.23;;;6.65;;
9773;SDS011;4926;42.670;23.316;2022-10-31T05:03:36;12.60;;;7.15;;
9773;SDS011;4926;42.670;23.316;2022-10-31T05:06:06;9.85;;;7.40;;
9773;SDS011;4926;42.670;23.316;2022-10-31T05:08:33;9.93;;;6.60;;
9773;SDS011;4926;42.670;23.316;2022-10-31T05:11:01;9.98;;;7.53;;
9773;SDS011;4926;42.670;23.316;2022-10-31T05:13:31;11.77;;;7.70;;
9773;SDS011;4926;42.670;23.316;2022-10-31T05:15:58;12.02;;;7.95;;
9773;SDS011;4926;42.670;23.316;2022-10-31T05:18:28;13.02;;;7.90;;
9773;SDS011;4926;42.670;23.316;2022-10-31T05:20:55;11.88;;;7.78;;
9773;SDS011;4926;42.670;23.316;2022-10-31T05:23:24;14.27;;;7.93;;
9773;SDS011;4926;42.670;23.316;2022-10-31T05:25:51;10.82;;;7.53;;
9773;SDS011;4926;42.670;23.316;2022-10-31T05:28:19;10.90;;;7.70;;
9773;SDS011;4926;42.670;23.316;2022-10-31T05:30:45;9.90;;;7.70;;
9773;SDS011;4926;42.670;23.316;2022-10-31T05:33:12;14.35;;;8.30;;
9773;SDS011;4926;42.670;23.316;2022-10-31T05:35:39;10.93;;;8.02;;
9773;SDS011;4926;42.670;23.316;2022-10-31T05:38:05;14.63;;;7.90;;
9773;SDS011;4926;42.670;23.316;2022-10-31T05:40:32;10.30;;;7.60;;
9773;SDS011;4926;42.670;23.316;2022-10-31T05:42:59;11.43;;;7.93;;
9773;SDS011;4926;42.670;23.316;2022-10-31T05:45:30;15.65;;;8.32;;
9773;SDS011;4926;42.670;23.316;2022-10-31T05:48:01;14.20;;;8.40;;
9773;SDS011;4926;42.670;23.316;2022-10-31T05:50:29;10.57;;;8.20;;
9773;SDS011;4926;42.670;23.316;2022-10-31T05:52:58;12.57;;;8.55;;
9773;SDS011;4926;42.670;23.316;2022-10-31T05:55:26;11.52;;;8.60;;
9773;SDS011;4926;42.670;23.316;2022-10-31T05:57:56;12.45;;;8.93;;
9773;SDS011;4926;42.670;23.316;2022-10-31T06:00:26;12.77;;;8.68;;
9773;SDS011;4926;42.670;23.316;2022-10-31T06:03:00;11.38;;;8.27;;
9773;SDS011;4926;42.670;23.316;2022-10-31T06:05:30;11.27;;;8.70;;
9773;SDS011;4926;42.670;23.316;2022-10-31T06:07:58;13.88;;;9.15;;
9773;SDS011;4926;42.670;23.316;2022-10-31T06:10:25;15.02;;;9.48;;
9773;SDS011;4926;42.670;23.316;2022-10-31T06:12:52;13.35;;;9.13;;
9773;SDS011;4926;42.670;23.316;2022-10-31T06:15:19;13.68;;;9.90;;
9773;SDS011;4926;42.670;23.316;2022-10-31T06:17:56;13.65;;;9.50;;
9773;SDS011;4926;42.670;23.316;2022-10-31T06:20:25;14.30;;;9.02;;
9773;SDS011;4926;42.670;23.316;2022-10-31T06:22:54;16.40;;;10.55;;
9773;SDS011;4926;42.670;23.316;2022-10-31T06:25:20;14.65;;;10.15;;
9773;SDS011;4926;42.670;23.316;2022-10-31T06:27:50;15.18;;;9.68;;
9773;SDS011;4926;42.670;23.316;2022-10-31T06:30:22;16.55;;;10.57;;
9773;SDS011;4926;42.670;23.316;2022-10-31T06:32:48;17.60;;;10.45;;
9773;SDS011;4926;42.670;23.316;2022-10-31T06:35:17;16.42;;;10.40;;
9773;SDS011;4926;42.670;23.316;2022-10-31T06:37:50;14.02;;;10.80;;
9773;SDS011;4926;42.670;23.316;2022-10-31T06:40:17;15.15;;;10.00;;
9773;SDS011;4926;42.670;23.316;2022-10-31T06:42:44;19.00;;;10.60;;
9773;SDS011;4926;42.670;23.316;2022-10-31T06:45:13;15.88;;;9.98;;
9773;SDS011;4926;42.670;23.316;2022-10-31T06:47:40;18.80;;;11.57;;
9773;SDS011;4926;42.670;23.316;2022-10-31T06:50:09;14.52;;;9.65;;
9773;SDS011;4926;42.670;23.316;2022-10-31T06:52:37;17.17;;;11.25;;
9773;SDS011;4926;42.670;23.316;2022-10-31T06:55:04;15.52;;;10.20;;
9773;SDS011;4926;42.670;23.316;2022-10-31T06:57:35;16.33;;;10.15;;
9773;SDS011;4926;42.670;23.316;2022-10-31T07:00:01;18.23;;;10.15;;
9773;SDS011;4926;42.670;23.316;2022-10-31T07:02:28;16.95;;;10.07;;
9773;SDS011;4926;42.670;23.316;2022-10-31T07:04:58;15.18;;;10.27;;
9773;SDS011;4926;42.670;23.316;2022-10-31T07:07:25;12.45;;;9.48;;
9773;SDS011;4926;42.670;23.316;2022-10-31T07:09:53;13.93;;;10.02;;
9773;SDS011;4926;42.670;23.316;2022-10-31T07:12:20;13.70;;;10.07;;
9773;SDS011;4926;42.670;23.316;2022-10-31T07:14:46;13.52;;;10.30;;
9773;SDS011;4926;42.670;23.316;2022-10-31T07:17:13;11.85;;;9.93;;
9773;SDS011;4926;42.670;23.316;2022-10-31T07:19:40;18.02;;;10.77;;
9773;SDS011;4926;42.670;23.316;2022-10-31T07:22:07;11.63;;;9.77;;
9773;SDS011;4926;42.670;23.316;2022-10-31T07:24:34;15.23;;;10.40;;
9773;SDS011;4926;42.670;23.316;2022-10-31T07:27:05;13.75;;;11.15;;
9773;SDS011;4926;42.670;23.316;2022-10-31T07:29:31;15.57;;;11.88;;
9773;SDS011;4926;42.670;23.316;2022-10-31T07:31:58;14.23;;;10.57;;
9773;SDS011;4926;42.670;23.316;2022-10-31T07:34:30;18.02;;;11.32;;
9773;SDS011;4926;42.670;23.316;2022-10-31T07:36:57;15.18;;;10.63;;
9773;SDS011;4926;42.670;23.316;2022-10-31T07:39:26;17.55;;;10.80;;
9773;SDS011;4926;42.670;23.316;2022-10-31T07:41:53;12.85;;;10.95;;
9773;SDS011;4926;42.670;23.316;2022-10-31T07:44:23;18.05;;;11.88;;
9773;SDS011;4926;42.670;23.316;2022-10-31T07:46:50;15.88;;;11.45;;
9773;SDS011;4926;42.670;23.316;2022-10-31T07:49:24;20.60;;;11.18;;
9773;SDS011;4926;42.670;23.316;2022-10-31T07:51:54;16.58;;;10.95;;
9773;SDS011;4926;42.670;23.316;2022-10-31T07:54:21;15.65;;;11.98;;
9773;SDS011;4926;42.670;23.316;2022-10-31T07:56:50;16.10;;;11.82;;
9773;SDS011;4926;42.670;23.316;2022-10-31T07:59:21;13.60;;;11.18;;
9773;SDS011;4926;42.670;23.316;2022-10-31T08:01:48;17.90;;;11.55;;
9773;SDS011;4926;42.670;23.316;2022-10-31T08:04:17;17.95;;;12.07;;
9773;SDS011;4926;42.670;23.316;2022-10-31T08:06:45;17.00;;;10.90;;
9773;SDS011;4926;42.670;23.316;2022-10-31T08:09:13;16.02;;;11.82;;
9773;SDS011;4926;42.670;23.316;2022-10-31T08:11:40;16.83;;;11.80;;
9773;SDS011;4926;42.670;23.316;2022-10-31T08:14:09;14.13;;;11.38;;
9773;SDS011;4926;42.670;23.316;2022-10-31T08:16:37;16.48;;;12.20;;
9773;SDS011;4926;42.670;23.316;2022-10-31T08:19:04;19.02;;;11.88;;
9773;SDS011;4926;42.670;23.316;2022-10-31T08:21:31;15.00;;;11.30;;
9773;SDS011;4926;42.670;23.316;2022-10-31T08:23:57;14.63;;;12.10;;
9773;SDS011;4926;42.670;23.316;2022-10-31T08:26:24;13.15;;;11.68;;
9773;SDS011;4926;42.670;23.316;2022-10-31T08:28:51;17.00;;;12.50;;
9773;SDS011;4926;42.670;23.316;2022-10-31T08:31:19;17.95;;;12.20;;
9773;SDS011;4926;42.670;23.316;2022-10-31T08:33:47;21.98;;;14.55;;
9773;SDS011;4926;42.670;23.316;2022-10-31T08:36:14;15.95;;;12.13;;
9773;SDS011;4926;42.670;23.316;2022-10-31T08:38:44;20.65;;;14.77;;
9773;SDS011;4926;42.670;23.316;2022-10-31T08:41:13;14.88;;;12.70;;
9773;SDS011;4926;42.670;23.316;2022-10-31T08:43:40;14.68;;;11.95;;
9773;SDS011;4926;42.670;23.316;2022-10-31T08:46:11;15.05;;;12.32;;
9773;SDS011;4926;42.670;23.316;2022-10-31T08:48:38;18.08;;;13.10;;
9773;SDS011;4926;42.670;23.316;2022-10-31T08:51:09;16.67;;;12.05;;
9773;SDS011;4926;42.670;23.316;2022-10-31T08:53:36;16.27;;;12.88;;
9773;SDS011;4926;42.670;23.316;2022-10-31T08:56:05;17.17;;;12.02;;
9773;SDS011;4926;42.670;23.316;2022-10-31T08:58:32;17.20;;;12.20;;
9773;SDS011;4926;42.670;23.316;2022-10-31T09:01:01;15.15;;;12.13;;
9773;SDS011;4926;42.670;23.316;2022-10-31T09:03:28;16.83;;;12.30;;
9773;SDS011;4926;42.670;23.316;2022-10-31T09:06:00;18.35;;;11.30;;
9773;SDS011;4926;42.670;23.316;2022-10-31T09:08:30;18.40;;;11.75;;
9773;SDS011;4926;42.670;23.316;2022-10-31T09:10:57;17.77;;;12.25;;
9773;SDS011;4926;42.670;23.316;2022-10-31T09:13:27;14.93;;;11.55;;
9773;SDS011;4926;42.670;23.316;2022-10-31T09:15:55;14.75;;;10.80;;
9773;SDS011;4926;42.670;23.316;2022-10-31T09:18:23;15.27;;;10.88;;
9773;SDS011;4926;42.670;23.316;2022-10-31T09:20:57;18.67;;;12.80;;
9773;SDS011;4926;42.670;23.316;2022-10-31T09:23:25;15.63;;;11.65;;
9773;SDS011;4926;42.670;23.316;2022-10-31T09:25:53;17.20;;;10.52;;
9773;SDS011;4926;42.670;23.316;2022-10-31T09:28:20;15.85;;;11.10;;
9773;SDS011;4926;42.670;23.316;2022-10-31T09:30:49;11.80;;;9.18;;
9773;SDS011;4926;42.670;23.316;2022-10-31T09:33:24;10.27;;;8.43;;
9773;SDS011;4926;42.670;23.316;2022-10-31T09:35:51;10.23;;;8.48;;
9773;SDS011;4926;42.670;23.316;2022-10-31T09:38:19;11.73;;;8.02;;
9773;SDS011;4926;42.670;23.316;2022-10-31T09:40:49;12.90;;;8.10;;
9773;SDS011;4926;42.670;23.316;2022-10-31T09:43:24;9.95;;;8.00;;
9773;SDS011;4926;42.670;23.316;2022-10-31T09:46:01;11.18;;;8.30;;
9773;SDS011;4926;42.670;23.316;2022-10-31T09:48:39;14.20;;;7.90;;
9773;SDS011;4926;42.670;23.316;2022-10-31T09:51:26;13.63;;;7.53;;
9773;SDS011;4926;42.670;23.316;2022-10-31T09:54:00;11.07;;;7.72;;
9773;SDS011;4926;42.670;23.316;2022-10-31T09:56:31;10.65;;;7.85;;
9773;SDS011;4926;42.670;23.316;2022-10-31T09:59:01;10.82;;;6.53;;
9773;SDS011;4926;42.670;23.316;2022-10-31T10:01:39;8.32;;;6.13;;
9773;SDS011;4926;42.670;23.316;2022-10-31T10:04:17;11.73;;;6.13;;
9773;SDS011;4926;42.670;23.316;2022-10-31T10:06:57;11.27;;;5.80;;
9773;SDS011;4926;42.670;23.316;2022-10-31T10:09:26;9.20;;;5.70;;
9773;SDS011;4926;42.670;23.316;2022-10-31T10:11:54;11.20;;;6.82;;
9773;SDS011;4926;42.670;23.316;2022-10-31T10:14:38;9.70;;;5.78;;
9773;SDS011;4926;42.670;23.316;2022-10-31T10:17:16;6.82;;;5.05;;
9773;SDS011;4926;42.670;23.316;2022-10-31T10:20:05;7.30;;;4.53;;
9773;SDS011;4926;42.670;23.316;2022-10-31T10:22:46;5.53;;;3.50;;
9773;SDS011;4926;42.670;23.316;2022-10-31T10:25:19;9.65;;;4.50;;
9773;SDS011;4926;42.670;23.316;2022-10-31T10:30:38;5.72;;;4.70;;
9773;SDS011;4926;42.670;23.316;2022-10-31T10:33:09;7.35;;;3.75;;
9773;SDS011;4926;42.670;23.316;2022-10-31T10:35:39;5.15;;;4.15;;
9773;SDS011;4926;42.670;23.316;2022-10-31T10:38:13;9.20;;;5.20;;
9773;SDS011;4926;42.670;23.316;2022-10-31T10:40:44;10.30;;;4.78;;
9773;SDS011;4926;42.670;23.316;2022-10-31T10:43:17;8.35;;;3.88;;
9773;SDS011;4926;42.670;23.316;2022-10-31T10:45:51;7.15;;;3.38;;
9773;SDS011;4926;42.670;23.316;2022-10-31T10:48:50;8.98;;;4.22;;
9773;SDS011;4926;42.670;23.316;2022-10-31T10:51:24;8.82;;;4.32;;
9773;SDS011;4926;42.670;23.316;2022-10-31T10:54:02;8.25;;;3.70;;
9773;SDS011;4926;42.670;23.316;2022-10-31T10:56:45;8.68;;;4.32;;
9773;SDS011;4926;42.670;23.316;2022-10-31T10:59:22;11.98;;;4.28;;
9773;SDS011;4926;42.670;23.316;2022-10-31T11:01:51;7.85;;;4.35;;
9773;SDS011;4926;42.670;23.316;2022-10-31T11:04:24;7.13;;;4.05;;
9773;SDS011;4926;42.670;23.316;2022-10-31T11:06:57;6.10;;;3.25;;
9773;SDS011;4926;42.670;23.316;2022-10-31T11:09:30;6.25;;;3.40;;
9773;SDS011;4926;42.670;23.316;2022-10-31T11:12:00;8.35;;;3.78;;
9773;SDS011;4926;42.670;23.316;2022-10-31T11:14:35;6.15;;;3.70;;
9773;SDS011;4926;42.670;23.316;2022-10-31T11:17:15;9.40;;;3.60;;
9773;SDS011;4926;42.670;23.316;2022-10-31T11:19:59;7.80;;;3.85;;
9773;SDS011;4926;42.670;23.316;2022-10-31T11:22:27;6.03;;;3.85;;
9773;SDS011;4926;42.670;23.316;2022-10-31T11:24:54;9.45;;;3.97;;
9773;SDS011;4926;42.670;23.316;2022-10-31T11:27:24;5.95;;;3.58;;
9773;SDS011;4926;42.670;23.316;2022-10-31T11:29:52;5.88;;;3.65;;
9773;SDS011;4926;42.670;23.316;2022-10-31T11:32:21;6.30;;;3.60;;
9773;SDS011;4926;42.670;23.316;2022-10-31T11:34:51;7.32;;;3.40;;
9773;SDS011;4926;42.670;23.316;2022-10-31T11:37:21;7.97;;;3.50;;
9773;SDS011;4926;42.670;23.316;2022-10-31T11:39:50;5.95;;;3.15;;
9773;SDS011;4926;42.670;23.316;2022-10-31T11:42:23;8.10;;;3.15;;
9773;SDS011;4926;42.670;23.316;2022-10-31T11:44:53;6.75;;;3.90;;
9773;SDS011;4926;42.670;23.316;2022-10-31T11:47:25;6.00;;;3.65;;
9773;SDS011;4926;42.670;23.316;2022-10-31T11:49:55;5.18;;;3.80;;
9773;SDS011;4926;42.670;23.316;2022-10-31T11:52:28;9.82;;;3.80;;
9773;SDS011;4926;42.670;23.316;2022-10-31T11:55:17;5.72;;;3.78;;
9773;SDS011;4926;42.670;23.316;2022-10-31T11:57:57;6.63;;;4.20;;
9773;SDS011;4926;42.670;23.316;2022-10-31T12:00:24;6.00;;;3.72;;
9773;SDS011;4926;42.670;23.316;2022-10-31T12:03:10;6.10;;;3.70;;
9773;SDS011;4926;42.670;23.316;2022-10-31T12:05:40;9.05;;;3.83;;
9773;SDS011;4926;42.670;23.316;2022-10-31T12:08:12;6.88;;;3.97;;
9773;SDS011;4926;42.670;23.316;2022-10-31T12:10:43;10.32;;;3.50;;
9773;SDS011;4926;42.670;23.316;2022-10-31T12:13:28;5.78;;;3.47;;
9773;SDS011;4926;42.670;23.316;2022-10-31T12:16:00;6.60;;;3.67;;
9773;SDS011;4926;42.670;23.316;2022-10-31T12:18:40;8.43;;;3.40;;
9773;SDS011;4926;42.670;23.316;2022-10-31T12:21:16;5.35;;;3.95;;
9773;SDS011;4926;42.670;23.316;2022-10-31T12:23:58;7.65;;;3.47;;
9773;SDS011;4926;42.670;23.316;2022-10-31T12:26:36;9.90;;;3.70;;
9773;SDS011;4926;42.670;23.316;2022-10-31T12:29:22;7.85;;;3.60;;
9773;SDS011;4926;42.670;23.316;2022-10-31T12:32:00;12.77;;;3.88;;
9773;SDS011;4926;42.670;23.316;2022-10-31T12:34:45;10.02;;;3.88;;
9773;SDS011;4926;42.670;23.316;2022-10-31T12:37:26;5.70;;;3.10;;
9773;SDS011;4926;42.670;23.316;2022-10-31T12:40:09;5.22;;;2.80;;
9773;SDS011;4926;42.670;23.316;2022-10-31T12:42:57;7.53;;;3.00;;
9773;SDS011;4926;42.670;23.316;2022-10-31T12:45:46;6.50;;;3.35;;
9773;SDS011;4926;42.670;23.316;2022-10-31T12:51:23;8.52;;;3.45;;
9773;SDS011;4926;42.670;23.316;2022-10-31T12:57:02;5.97;;;3.50;;
9773;SDS011;4926;42.670;23.316;2022-10-31T12:59:37;7.22;;;3.45;;
9773;SDS011;4926;42.670;23.316;2022-10-31T13:02:10;8.00;;;3.72;;
9773;SDS011;4926;42.670;23.316;2022-10-31T13:04:46;9.73;;;4.20;;
9773;SDS011;4926;42.670;23.316;2022-10-31T13:07:19;7.72;;;3.63;;
9773;SDS011;4926;42.670;23.316;2022-10-31T13:09:54;6.53;;;3.35;;
9773;SDS011;4926;42.670;23.316;2022-10-31T13:12:27;5.70;;;3.33;;
9773;SDS011;4926;42.670;23.316;2022-10-31T13:14:57;8.18;;;3.85;;
9773;SDS011;4926;42.670;23.316;2022-10-31T13:17:27;8.23;;;3.28;;
9773;SDS011;4926;42.670;23.316;2022-10-31T13:20:02;4.38;;;3.42;;
9773;SDS011;4926;42.670;23.316;2022-10-31T13:22:41;8.13;;;3.90;;
9773;SDS011;4926;42.670;23.316;2022-10-31T13:25:11;8.95;;;3.42;;
9773;SDS011;4926;42.670;23.316;2022-10-31T13:27:43;8.63;;;4.07;;
9773;SDS011;4926;42.670;23.316;2022-10-31T13:30:16;6.97;;;3.90;;
9773;SDS011;4926;42.670;23.316;2022-10-31T13:32:46;5.90;;;4.10;;
9773;SDS011;4926;42.670;23.316;2022-10-31T13:35:19;8.30;;;4.68;;
9773;SDS011;4926;42.670;23.316;2022-10-31T13:37:55;8.27;;;4.65;;
9773;SDS011;4926;42.670;23.316;2022-10-31T13:40:33;6.85;;;4.65;;
9773;SDS011;4926;42.670;23.316;2022-10-31T13:43:07;6.03;;;3.63;;
9773;SDS011;4926;42.670;23.316;2022-10-31T13:45:48;7.38;;;4.00;;
9773;SDS011;4926;42.670;23.316;2022-10-31T13:48:20;9.80;;;3.55;;
9773;SDS011;4926;42.670;23.316;2022-10-31T13:51:00;11.63;;;3.85;;
9773;SDS011;4926;42.670;23.316;2022-10-31T13:53:45;5.93;;;3.30;;
9773;SDS011;4926;42.670;23.316;2022-10-31T13:56:24;7.38;;;4.20;;
9773;SDS011;4926;42.670;23.316;2022-10-31T13:58:57;11.05;;;4.45;;
9773;SDS011;4926;42.670;23.316;2022-10-31T14:01:27;9.05;;;4.25;;
9773;SDS011;4926;42.670;23.316;2022-10-31T14:04:00;8.50;;;3.95;;
9773;SDS011;4926;42.670;23.316;2022-10-31T14:06:37;5.72;;;3.90;;
9773;SDS011;4926;42.670;23.316;2022-10-31T14:09:17;10.27;;;4.90;;
9773;SDS011;4926;42.670;23.316;2022-10-31T14:11:48;7.68;;;4.00;;
9773;SDS011;4926;42.670;23.316;2022-10-31T14:14:16;11.25;;;4.90;;
9773;SDS011;4926;42.670;23.316;2022-10-31T14:16:44;10.00;;;4.00;;
9773;SDS011;4926;42.670;23.316;2022-10-31T14:19:16;10.50;;;3.63;;
9773;SDS011;4926;42.670;23.316;2022-10-31T14:21:45;7.63;;;3.72;;
9773;SDS011;4926;42.670;23.316;2022-10-31T14:24:28;9.68;;;4.00;;
9773;SDS011;4926;42.670;23.316;2022-10-31T14:26:59;6.88;;;4.03;;
9773;SDS011;4926;42.670;23.316;2022-10-31T14:29:28;12.73;;;3.88;;
9773;SDS011;4926;42.670;23.316;2022-10-31T14:32:01;13.23;;;3.80;;
9773;SDS011;4926;42.670;23.316;2022-10-31T14:34:36;9.23;;;3.92;;
9773;SDS011;4926;42.670;23.316;2022-10-31T14:37:20;8.23;;;4.10;;
9773;SDS011;4926;42.670;23.316;2022-10-31T14:40:14;10.30;;;4.72;;
9773;SDS011;4926;42.670;23.316;2022-10-31T14:43:07;13.60;;;4.40;;
9773;SDS011;4926;42.670;23.316;2022-10-31T14:45:54;17.30;;;4.32;;
9773;SDS011;4926;42.670;23.316;2022-10-31T14:48:49;5.20;;;3.78;;
9773;SDS011;4926;42.670;23.316;2022-10-31T14:51:26;14.23;;;4.28;;
9773;SDS011;4926;42.670;23.316;2022-10-31T14:53:59;13.55;;;4.43;;
9773;SDS011;4926;42.670;23.316;2022-10-31T14:56:29;9.82;;;4.10;;
9773;SDS011;4926;42.670;23.316;2022-10-31T14:58:59;7.28;;;4.13;;
9773;SDS011;4926;42.670;23.316;2022-10-31T15:01:29;11.43;;;4.68;;
9773;SDS011;4926;42.670;23.316;2022-10-31T15:04:04;14.18;;;5.47;;
9773;SDS011;4926;42.670;23.316;2022-10-31T15:06:39;17.70;;;6.43;;
9773;SDS011;4926;42.670;23.316;2022-10-31T15:09:20;15.23;;;6.32;;
9773;SDS011;4926;42.670;23.316;2022-10-31T15:11:49;14.93;;;6.10;;
9773;SDS011;4926;42.670;23.316;2022-10-31T15:14:23;16.83;;;6.18;;
9773;SDS011;4926;42.670;23.316;2022-10-31T15:16:52;15.35;;;5.60;;
9773;SDS011;4926;42.670;23.316;2022-10-31T15:19:20;19.17;;;9.50;;
9773;SDS011;4926;42.670;23.316;2022-10-31T15:21:50;22.05;;;6.72;;
9773;SDS011;4926;42.670;23.316;2022-10-31T15:24:18;13.85;;;5.38;;
9773;SDS011;4926;42.670;23.316;2022-10-31T15:26:46;13.57;;;6.07;;
9773;SDS011;4926;42.670;23.316;2022-10-31T15:29:18;15.48;;;5.72;;
9773;SDS011;4926;42.670;23.316;2022-10-31T15:31:51;18.80;;;6.35;;